Aeroporto :
LOGIN :

Iscrizione | Disclaimer

   EN    FR    IT 

 










Sommario :    VFR   VFR Marginale   IFR   IFR Intensivo   IFR Molto Intensivo
Visibilità : 
Base nubi : 
>= 8 km
>= 3000ft
5 / 8 km
1000 / 3000 ft
1500m / 5 km
500 / 1000 ft
800 / 1500m
200 / 500 ft
< 800m
< 200 ft
Simboli :   Temporali  Nebbia  Neve Forte  Precipitazioni Forti  Vento > 20 kt
SIGMETs :   Varie  Temporali  Ghiacco  Turbolenza  Onda orograficha  Ceneri Vulcaniche






- Altitudine del aeroporto : 529 ft
- Codice IATA : CHR


LFLX - Chateauroux

ULTIMO METAR :
  • 191630Z AUTO 25010KT 9999 ///TCU 23/19 Q1019 TEMPO 27015G25KT 2500 TSRA BKN040CB

METARs OBSOLETI :
  • 191600Z AUTO 24012KT 9999 //////CB 22/18 Q1019 TEMPO 27015G25KT 2500 TSRA
  • 191530Z AUTO 24011KT 9999 FEW034/// SCT052/// BKN088/// ///CB 23/19 Q1019 TEMPO 27015G25KT 2500 TSRA
  • 191500Z AUTO 26010KT 9999 RA FEW037/// SCT044/// BKN056/// ///CB 24/17 Q1019 TEMPO 27015G25KT 2500 TSRA
  • 191430Z AUTO 26007KT 210V310 9999 SCT037/// BKN045/// BKN060/// //////CB 25/16 Q1019 TEMPO 27015G25KT 2500 TSRA
  • 191400Z AUTO 25009KT 220V290 9999 BKN037 BKN046 OVC054 25/16 Q1019 TEMPO 27015G25KT 2500 TSRA BKN040CB

TAF TAF LFLX
Valido dal 19 a 12 ore il 20 a 18 ore UTC


191100Z 1912/2018 27010KT 9999 BKN040
TEMPO 1912/1921 4000 SHRA BKN040TCU
PROB40
TEMPO 1915/1921 27015G25KT 2500 TSRA BKN040CB
PROB30
TEMPO 2003/2007 3000 BR BKN004



MetMap, La meteo Aeronautica in un colpo d'occhio ! - Copyright ORBIFLY Dicembre 2007 - Disclaimer

ORBIFLY MET'MAP TEAM :

Programmazione e sviluppo : Alexandra Zaïnal
Concezione : Baudouin d'Aumeries
Supporto tecnico e logistico : Manuel Goepfert
Aiuto : Marc-Olivier Méhu
Aiuto per la traduzione : Arnaldo La Scala




FONTI E CREDITI :

   NOAA